createdAt,value
2018-09-06T00:01:24.561Z,86.60
2018-09-06T00:03:57.083Z,87.10
2018-09-06T00:06:29.681Z,86.90
2018-09-06T00:09:02.174Z,87.30
2018-09-06T00:11:34.749Z,87.10
2018-09-06T00:14:07.342Z,87.00
2018-09-06T00:16:39.981Z,86.90
2018-09-06T00:19:12.439Z,87.10
2018-09-06T00:21:45.119Z,87.80
2018-09-06T00:24:17.636Z,87.70
2018-09-06T00:26:50.344Z,87.60
2018-09-06T00:29:23.135Z,88.00
2018-09-06T00:31:55.733Z,88.30
2018-09-06T00:34:28.289Z,88.20
2018-09-06T00:37:00.906Z,88.50
2018-09-06T00:39:33.449Z,88.70
2018-09-06T00:42:06.083Z,88.60
2018-09-06T00:44:38.649Z,88.80
2018-09-06T00:47:11.915Z,89.00
2018-09-06T00:49:44.515Z,89.90
2018-09-06T00:52:17.211Z,89.30
2018-09-06T00:54:49.727Z,89.70
2018-09-06T00:57:22.443Z,89.80
2018-09-06T00:59:54.988Z,90.00
2018-09-06T01:02:27.574Z,90.00
2018-09-06T01:05:00.107Z,90.10
2018-09-06T01:07:32.673Z,90.30
2018-09-06T01:10:05.326Z,90.40
2018-09-06T01:12:38.064Z,90.60
2018-09-06T01:15:10.631Z,91.00
2018-09-06T01:17:43.271Z,90.90
2018-09-06T01:20:15.980Z,91.00
2018-09-06T01:22:48.587Z,91.40
2018-09-06T01:25:21.148Z,91.30
2018-09-06T01:27:53.816Z,91.40
2018-09-06T01:30:26.322Z,91.60
2018-09-06T01:32:58.862Z,91.80
2018-09-06T01:35:31.494Z,91.90
2018-09-06T01:38:04.037Z,91.90
2018-09-06T01:40:36.649Z,92.50
2018-09-06T01:43:09.414Z,92.10
2018-09-06T01:45:41.997Z,92.20
2018-09-06T01:48:14.601Z,92.30
2018-09-06T01:50:47.142Z,92.40
2018-09-06T01:53:19.733Z,92.30
2018-09-06T01:55:52.225Z,92.60
2018-09-06T01:58:24.885Z,92.30
2018-09-06T02:00:57.433Z,92.60
2018-09-06T02:03:30.036Z,92.60
2018-09-06T02:06:02.577Z,92.50
2018-09-06T02:08:35.327Z,92.60
2018-09-06T02:11:07.816Z,92.50
2018-09-06T02:13:40.394Z,92.60
2018-09-06T02:16:12.946Z,92.70
2018-09-06T02:18:45.613Z,92.80
2018-09-06T02:21:18.110Z,92.80
2018-09-06T02:23:50.658Z,93.00
2018-09-06T02:26:23.222Z,93.00
2018-09-06T02:28:55.777Z,93.00
2018-09-06T02:31:28.305Z,93.30
2018-09-06T02:34:00.841Z,93.30
2018-09-06T02:36:33.290Z,93.50
2018-09-06T02:39:07.891Z,93.50
2018-09-06T02:41:40.498Z,93.60
2018-09-06T02:44:13.027Z,93.80
2018-09-06T02:46:45.554Z,93.80
2018-09-06T02:49:21.882Z,94.20
2018-09-06T02:51:54.455Z,94.30
2018-09-06T02:54:27.060Z,94.50
2018-09-06T02:56:59.664Z,94.50
2018-09-06T02:59:32.140Z,94.60
2018-09-06T03:02:04.725Z,94.80
2018-09-06T03:04:37.233Z,95.00
2018-09-06T03:07:09.861Z,95.00
2018-09-06T03:09:42.466Z,95.10
2018-09-06T03:12:15.282Z,95.10
2018-09-06T03:14:47.812Z,95.50
2018-09-06T03:17:20.579Z,95.50
2018-09-06T03:19:53.145Z,95.60
2018-09-06T03:22:25.682Z,96.00
2018-09-06T03:24:58.109Z,95.90
2018-09-06T03:27:30.807Z,96.30
2018-09-06T03:30:03.423Z,96.10
2018-09-06T03:32:36.465Z,96.20
2018-09-06T03:35:09.001Z,96.60
2018-09-06T03:37:41.680Z,96.50
2018-09-06T03:40:14.157Z,96.40
2018-09-06T03:42:46.818Z,96.50
2018-09-06T03:45:19.449Z,96.60
2018-09-06T03:47:52.090Z,96.70
2018-09-06T03:50:24.617Z,96.70
2018-09-06T03:52:57.178Z,96.90
2018-09-06T03:55:29.665Z,97.00
2018-09-06T03:58:02.389Z,97.10
2018-09-06T04:00:34.865Z,97.20
2018-09-06T04:03:07.603Z,97.00
2018-09-06T04:05:40.089Z,97.00
2018-09-06T04:08:12.681Z,96.90
2018-09-06T04:10:47.078Z,97.10
2018-09-06T04:13:19.603Z,97.00
2018-09-06T04:15:52.172Z,96.90
2018-09-06T04:18:24.759Z,97.20
2018-09-06T04:20:57.343Z,97.00
2018-09-06T04:23:30.048Z,96.80
2018-09-06T04:26:02.729Z,97.00
2018-09-06T04:28:35.435Z,97.20
2018-09-06T04:31:06.772Z,97.20
2018-09-06T04:33:38.061Z,97.30
2018-09-06T04:36:09.403Z,97.30
2018-09-06T04:38:40.618Z,96.90
2018-09-06T04:41:12.107Z,96.90
2018-09-06T04:43:43.471Z,97.10
2018-09-06T04:46:14.654Z,97.00
2018-09-06T04:48:45.850Z,97.50
2018-09-06T04:51:17.083Z,97.10
2018-09-06T04:53:48.357Z,97.40
2018-09-06T04:56:19.619Z,97.40
2018-09-06T04:58:50.959Z,98.00
2018-09-06T05:01:22.191Z,98.10
2018-09-06T05:03:53.546Z,98.20
2018-09-06T05:06:25.965Z,98.20
2018-09-06T05:08:57.249Z,98.60
2018-09-06T05:11:28.534Z,98.50
2018-09-06T05:13:59.774Z,99.00
2018-09-06T05:16:32.437Z,98.60
2018-09-06T05:19:03.716Z,98.80
2018-09-06T05:21:34.936Z,99.20
2018-09-06T05:24:06.199Z,99.30
2018-09-06T05:26:37.460Z,99.50
2018-09-06T05:29:08.737Z,99.20
2018-09-06T05:31:39.957Z,99.30
2018-09-06T05:34:11.208Z,98.90
2018-09-06T05:36:42.567Z,99.30
2018-09-06T05:39:14.521Z,99.40
2018-09-06T05:41:45.754Z,99.20
2018-09-06T05:44:16.993Z,99.20
2018-09-06T05:46:48.311Z,99.50
2018-09-06T05:49:19.566Z,99.70
2018-09-06T05:51:50.837Z,99.70
2018-09-06T05:54:22.129Z,99.80
2018-09-06T05:56:53.330Z,99.90
2018-09-06T05:59:24.821Z,99.90
2018-09-06T06:01:56.037Z,99.90
2018-09-06T06:04:27.293Z,99.90
2018-09-06T06:06:58.499Z,99.90
2018-09-06T06:09:29.770Z,99.90
2018-09-06T06:12:00.990Z,99.90
2018-09-06T06:14:32.254Z,99.90
2018-09-06T06:17:03.470Z,99.90
2018-09-06T06:19:34.931Z,99.90
2018-09-06T06:22:06.168Z,99.90
2018-09-06T06:24:37.422Z,99.90
2018-09-06T06:27:08.665Z,99.90
2018-09-06T06:29:39.890Z,99.90
2018-09-06T06:32:11.178Z,99.90
2018-09-06T06:34:42.484Z,99.90
2018-09-06T06:37:13.726Z,99.90
2018-09-06T06:39:45.017Z,99.90
2018-09-06T06:42:16.305Z,99.90
2018-09-06T06:44:47.552Z,99.90
2018-09-06T06:47:18.979Z,99.90
2018-09-06T06:49:50.263Z,99.90
2018-09-06T06:52:21.453Z,99.90
2018-09-06T06:54:52.760Z,99.90
2018-09-06T06:57:23.988Z,99.90
2018-09-06T06:59:55.243Z,99.90
2018-09-06T07:02:26.437Z,99.90
2018-09-06T07:04:57.976Z,99.90
2018-09-06T07:07:29.220Z,99.90
2018-09-06T07:10:00.555Z,99.90
2018-09-06T07:12:31.810Z,99.90
2018-09-06T07:15:03.099Z,99.90
2018-09-06T07:17:34.345Z,99.90
2018-09-06T07:20:05.707Z,99.00
2018-09-06T07:22:36.933Z,99.10
2018-09-06T07:25:08.253Z,98.90
2018-09-06T07:27:39.505Z,98.60
2018-09-06T07:30:11.061Z,98.60
2018-09-06T07:32:42.294Z,98.60
2018-09-06T07:35:13.612Z,98.30
2018-09-06T07:37:44.814Z,97.90
2018-09-06T07:40:16.145Z,97.40
2018-09-06T07:42:47.386Z,97.20
2018-09-06T07:45:18.709Z,97.20
2018-09-06T07:47:49.960Z,96.80
2018-09-06T07:50:21.210Z,96.90
2018-09-06T07:52:52.436Z,96.90
2018-09-06T07:55:23.715Z,97.00
2018-09-06T08:00:42.282Z,96.00
2018-09-06T08:03:13.889Z,96.10
2018-09-06T08:05:45.150Z,95.80
2018-09-06T08:08:16.474Z,95.50
2018-09-06T08:10:47.768Z,95.40
2018-09-06T08:13:19.060Z,95.40
2018-09-06T08:15:50.539Z,95.10
2018-09-06T08:18:21.826Z,94.70
2018-09-06T08:20:53.521Z,94.30
2018-09-06T08:23:24.755Z,94.30
2018-09-06T08:25:56.110Z,94.50
2018-09-06T08:28:27.324Z,94.20
2018-09-06T08:30:58.750Z,94.20
2018-09-06T08:33:29.973Z,93.80
2018-09-06T08:36:01.791Z,94.10
2018-09-06T08:38:33.053Z,94.30
2018-09-06T08:41:04.482Z,93.80
2018-09-06T08:43:35.774Z,93.80
2018-09-06T08:46:07.182Z,93.70
2018-09-06T08:48:38.531Z,93.20
2018-09-06T08:51:10.132Z,92.90
2018-09-06T08:53:41.406Z,92.60
2018-09-06T08:56:12.753Z,92.50
2018-09-06T08:58:44.217Z,92.20
2018-09-06T09:01:20.392Z,92.40
2018-09-06T09:03:51.674Z,91.50
2018-09-06T09:06:23.113Z,91.50
2018-09-06T09:08:54.357Z,91.00
2018-09-06T09:11:25.787Z,91.00
2018-09-06T09:13:57.053Z,90.80
2018-09-06T09:16:28.396Z,90.10
2018-09-06T09:18:59.756Z,89.70
2018-09-06T09:21:31.222Z,88.60
2018-09-06T09:24:02.857Z,88.00
2018-09-06T09:26:37.197Z,87.50
2018-09-06T09:29:09.802Z,86.90
2018-09-06T09:31:42.548Z,87.00
2018-09-06T09:34:15.196Z,86.10
2018-09-06T09:36:51.120Z,85.60
2018-09-06T09:39:26.129Z,85.70
2018-09-06T09:42:00.449Z,84.40
2018-09-06T09:44:33.127Z,83.60
2018-09-06T09:49:34.588Z,83.40
2018-09-06T09:52:10.202Z,82.60
2018-09-06T09:54:41.843Z,81.80
2018-09-06T09:57:13.779Z,80.50
2018-09-06T09:59:45.389Z,79.40
2018-09-06T10:02:21.924Z,78.80
2018-09-06T10:05:01.633Z,79.20
2018-09-06T10:07:39.088Z,78.90
2018-09-06T10:10:10.897Z,78.80
2018-09-06T10:12:42.531Z,78.20
2018-09-06T10:15:13.870Z,77.40
2018-09-06T10:17:45.130Z,76.90
2018-09-06T10:20:16.401Z,76.00
2018-09-06T10:22:47.810Z,75.20
2018-09-06T10:25:19.065Z,74.70
2018-09-06T10:27:50.507Z,74.10
2018-09-06T10:30:22.430Z,74.40
2018-09-06T10:32:53.863Z,73.90
2018-09-06T10:35:25.465Z,74.10
2018-09-06T10:37:56.856Z,73.30
2018-09-06T10:40:28.243Z,72.80
2018-09-06T10:42:59.649Z,72.30
2018-09-06T10:45:31.019Z,71.80
2018-09-06T10:48:02.348Z,71.30
2018-09-06T10:50:33.609Z,70.90
2018-09-06T10:53:04.962Z,69.30
2018-09-06T10:55:36.206Z,69.00
2018-09-06T10:58:07.603Z,68.20
2018-09-06T11:00:39.762Z,67.50
2018-09-06T11:03:11.211Z,67.60
2018-09-06T11:05:42.621Z,67.30
2018-09-06T11:08:13.999Z,67.10
2018-09-06T11:10:45.217Z,66.40
2018-09-06T11:13:16.538Z,66.30
2018-09-06T11:15:47.777Z,66.60
2018-09-06T11:18:19.107Z,65.80
2018-09-06T11:20:50.392Z,64.30
2018-09-06T11:23:21.705Z,64.70
2018-09-06T11:25:52.985Z,63.70
2018-09-06T11:28:24.659Z,63.70
2018-09-06T11:30:55.885Z,62.90
2018-09-06T11:33:27.262Z,62.10
2018-09-06T11:35:58.544Z,62.40
2018-09-06T11:38:29.837Z,61.20
2018-09-06T11:41:01.139Z,60.70
2018-09-06T11:43:32.530Z,60.20
2018-09-06T11:46:03.787Z,60.20
2018-09-06T11:48:35.091Z,59.60
2018-09-06T11:51:07.057Z,59.70
2018-09-06T11:53:38.383Z,59.40
2018-09-06T11:56:09.814Z,59.30
2018-09-06T11:58:41.108Z,59.00
2018-09-06T12:01:12.431Z,57.90
2018-09-06T12:03:43.857Z,57.20
2018-09-06T12:06:15.212Z,57.40
2018-09-06T12:08:46.528Z,57.80
2018-09-06T12:11:17.798Z,57.60
2018-09-06T12:13:49.157Z,57.10
2018-09-06T12:16:20.358Z,56.30
2018-09-06T12:18:51.633Z,56.10
2018-09-06T12:21:22.923Z,55.70
2018-09-06T12:23:54.257Z,56.50
2018-09-06T12:26:25.541Z,55.50
2018-09-06T12:28:56.876Z,54.50
2018-09-06T12:31:28.182Z,54.90
2018-09-06T12:33:59.639Z,54.50
2018-09-06T12:36:30.913Z,54.20
2018-09-06T12:39:02.398Z,54.80
2018-09-06T12:41:33.724Z,54.70
2018-09-06T12:44:05.074Z,54.50
2018-09-06T12:46:36.413Z,54.50
2018-09-06T12:49:07.717Z,54.00
2018-09-06T12:51:39.034Z,53.80
2018-09-06T12:54:10.405Z,54.60
2018-09-06T12:56:41.829Z,54.80
2018-09-06T12:59:13.129Z,55.20
2018-09-06T13:01:44.443Z,55.30
2018-09-06T13:04:15.740Z,54.70
2018-09-06T13:06:46.995Z,54.40
2018-09-06T13:09:18.312Z,53.60
2018-09-06T13:11:49.573Z,53.00
2018-09-06T13:14:20.859Z,52.50
2018-09-06T13:16:52.164Z,52.40
2018-09-06T13:19:23.448Z,51.90
2018-09-06T13:21:54.686Z,52.00
2018-09-06T13:24:25.980Z,52.10
2018-09-06T13:26:57.249Z,51.70
2018-09-06T13:29:28.537Z,51.20
2018-09-06T13:31:59.770Z,50.90
2018-09-06T13:34:33.913Z,50.30
2018-09-06T13:37:07.200Z,50.40
2018-09-06T13:39:38.504Z,49.90
2018-09-06T13:42:09.908Z,50.20
2018-09-06T13:44:41.219Z,49.50
2018-09-06T13:47:12.489Z,49.20
2018-09-06T13:49:43.742Z,50.00
2018-09-06T13:52:15.123Z,49.40
2018-09-06T13:54:46.373Z,47.60
2018-09-06T13:57:17.650Z,48.20
2018-09-06T13:59:48.969Z,48.10
2018-09-06T14:02:20.235Z,48.20
2018-09-06T14:04:51.598Z,48.10
2018-09-06T14:07:22.866Z,48.20
2018-09-06T14:09:54.258Z,47.90
2018-09-06T14:12:25.511Z,47.00
2018-09-06T14:14:56.822Z,47.40
2018-09-06T14:17:28.107Z,47.30
2018-09-06T14:19:59.431Z,47.30
2018-09-06T14:22:30.669Z,47.30
2018-09-06T14:25:01.925Z,47.30
2018-09-06T14:27:33.224Z,46.90
2018-09-06T14:30:04.486Z,46.70
2018-09-06T14:32:35.710Z,46.30
2018-09-06T14:35:07.120Z,46.20
2018-09-06T14:37:38.360Z,46.40
2018-09-06T14:40:10.127Z,46.40
2018-09-06T14:42:41.353Z,46.70
2018-09-06T14:45:12.695Z,46.70
2018-09-06T14:47:44.129Z,46.60
2018-09-06T14:50:15.418Z,47.10
2018-09-06T14:52:47.207Z,47.70
2018-09-06T14:55:18.480Z,48.60
2018-09-06T14:57:49.733Z,48.70
2018-09-06T15:00:21.045Z,48.50
2018-09-06T15:02:52.750Z,48.60
2018-09-06T15:05:24.065Z,49.10
2018-09-06T15:07:55.396Z,49.10
2018-09-06T15:10:26.646Z,49.30
2018-09-06T15:12:57.891Z,49.30
2018-09-06T15:15:29.240Z,49.10
2018-09-06T15:18:00.498Z,48.50
2018-09-06T15:20:31.761Z,48.90
2018-09-06T15:23:03.021Z,48.80
2018-09-06T15:25:34.288Z,48.50
2018-09-06T15:28:05.606Z,48.30
2018-09-06T15:30:36.893Z,48.60
2018-09-06T15:33:08.392Z,48.20
2018-09-06T15:35:39.667Z,48.30
2018-09-06T15:38:10.915Z,47.90
2018-09-06T15:40:42.218Z,48.70
2018-09-06T15:43:13.452Z,48.80
2018-09-06T15:45:44.725Z,49.20
2018-09-06T15:48:15.970Z,48.60
2018-09-06T15:50:47.302Z,48.30
2018-09-06T15:53:18.533Z,48.60
2018-09-06T15:55:49.870Z,48.20
2018-09-06T15:58:21.147Z,48.10
2018-09-06T16:00:52.461Z,47.90
2018-09-06T16:03:23.741Z,48.30
2018-09-06T16:05:55.050Z,48.50
2018-09-06T16:08:26.595Z,48.80
2018-09-06T16:10:57.878Z,48.80
2018-09-06T16:13:29.201Z,48.70
2018-09-06T16:16:00.493Z,48.50
2018-09-06T16:18:31.775Z,49.00
2018-09-06T16:21:03.039Z,49.40
2018-09-06T16:23:34.358Z,49.50
2018-09-06T16:26:05.674Z,49.70
2018-09-06T16:28:36.925Z,50.10
2018-09-06T16:31:08.261Z,50.70
2018-09-06T16:33:39.535Z,50.80
2018-09-06T16:36:10.867Z,51.60
2018-09-06T16:38:42.150Z,52.10
2018-09-06T16:41:13.466Z,52.10
2018-09-06T16:43:44.719Z,52.30
2018-09-06T16:46:16.003Z,52.60
2018-09-06T16:48:47.238Z,53.00
2018-09-06T16:51:18.528Z,53.20
2018-09-06T16:53:49.825Z,53.20
2018-09-06T16:56:21.113Z,53.60
2018-09-06T16:58:52.348Z,53.80
2018-09-06T17:01:24.093Z,54.20
2018-09-06T17:03:55.302Z,54.40
2018-09-06T17:06:27.137Z,54.70
2018-09-06T17:08:58.389Z,54.70
2018-09-06T17:11:29.678Z,55.00
2018-09-06T17:16:48.068Z,55.30
2018-09-06T17:19:19.276Z,55.80
2018-09-06T17:21:50.540Z,56.00
2018-09-06T17:24:22.266Z,56.40
2018-09-06T17:26:53.539Z,57.00
2018-09-06T17:29:24.744Z,57.10
2018-09-06T17:31:56.350Z,57.40
2018-09-06T17:34:27.568Z,57.80
2018-09-06T17:36:58.851Z,58.60
2018-09-06T17:39:30.121Z,58.40
2018-09-06T17:42:01.544Z,58.40
2018-09-06T17:44:32.736Z,58.20
2018-09-06T17:47:04.044Z,58.50
2018-09-06T17:49:35.234Z,58.60
2018-09-06T17:52:06.530Z,58.00
2018-09-06T17:54:37.876Z,58.50
2018-09-06T17:57:09.047Z,59.80
2018-09-06T17:59:40.268Z,58.90
2018-09-06T18:02:11.609Z,59.60
2018-09-06T18:04:42.898Z,60.20
2018-09-06T18:07:14.216Z,60.60
2018-09-06T18:09:45.522Z,61.00
2018-09-06T18:12:16.857Z,61.40
2018-09-06T18:14:48.119Z,61.90
2018-09-06T18:17:19.520Z,62.70
2018-09-06T18:19:50.805Z,63.60
2018-09-06T18:22:22.115Z,64.50
2018-09-06T18:24:53.478Z,65.40
2018-09-06T18:30:11.653Z,67.70
2018-09-06T18:32:43.110Z,69.20
2018-09-06T18:35:14.326Z,69.90
2018-09-06T18:37:45.658Z,71.70
2018-09-06T18:40:16.941Z,72.00
2018-09-06T18:42:48.261Z,73.30
2018-09-06T18:45:19.560Z,73.50
2018-09-06T18:47:50.918Z,73.80
2018-09-06T18:50:23.121Z,74.90
2018-09-06T18:52:54.510Z,75.60
2018-09-06T18:55:25.865Z,74.70
2018-09-06T18:57:58.213Z,75.50
2018-09-06T19:00:29.540Z,77.00
2018-09-06T19:03:00.849Z,77.30
2018-09-06T19:05:32.126Z,77.60
2018-09-06T19:08:03.526Z,77.60
2018-09-06T19:10:34.909Z,78.00
2018-09-06T19:13:06.337Z,77.60
2018-09-06T19:15:37.555Z,78.10
2018-09-06T19:18:08.885Z,78.20
2018-09-06T19:20:40.171Z,78.30
2018-09-06T19:23:11.706Z,78.50
2018-09-06T19:25:43.066Z,78.50
2018-09-06T19:28:14.486Z,79.20
2018-09-06T19:30:45.791Z,79.40
2018-09-06T19:33:17.174Z,79.80
2018-09-06T19:35:48.434Z,80.20
2018-09-06T19:38:19.784Z,81.00
2018-09-06T19:40:51.346Z,81.20
2018-09-06T19:43:22.691Z,81.40
2018-09-06T19:45:54.717Z,82.30
2018-09-06T19:48:27.116Z,82.60
2018-09-06T19:50:58.818Z,82.50
2018-09-06T19:53:30.103Z,83.00
2018-09-06T19:56:07.866Z,83.80
2018-09-06T19:58:39.585Z,84.00
2018-09-06T20:01:10.890Z,84.50
2018-09-06T20:03:42.453Z,86.00
2018-09-06T20:06:13.722Z,86.30
2018-09-06T20:08:45.009Z,86.70
2018-09-06T20:11:16.309Z,87.00
2018-09-06T20:13:47.656Z,87.10
2018-09-06T20:16:18.993Z,86.90
2018-09-06T20:18:50.285Z,86.70
2018-09-06T20:21:21.538Z,87.30
2018-09-06T20:23:52.859Z,87.50
2018-09-06T20:26:24.120Z,87.50
2018-09-06T20:28:55.405Z,87.80
2018-09-06T20:31:26.685Z,88.00
2018-09-06T20:33:57.959Z,88.40
2018-09-06T20:36:29.225Z,89.20
2018-09-06T20:39:00.517Z,88.70
2018-09-06T20:41:31.921Z,89.00
2018-09-06T20:44:03.185Z,89.40
2018-09-06T20:46:34.536Z,89.40
2018-09-06T20:49:05.923Z,89.70
2018-09-06T20:51:37.167Z,89.90
2018-09-06T20:54:08.487Z,90.00
2018-09-06T20:56:39.758Z,90.20
2018-09-06T20:59:11.077Z,90.20
2018-09-06T21:01:43.615Z,90.30
2018-09-06T21:04:16.211Z,90.60
2018-09-06T21:06:48.746Z,90.70
2018-09-06T21:09:21.381Z,91.00
2018-09-06T21:11:54.006Z,91.60
2018-09-06T21:14:26.682Z,91.80
2018-09-06T21:16:59.168Z,92.00
2018-09-06T21:19:31.755Z,92.50
2018-09-06T21:22:04.275Z,93.10
2018-09-06T21:24:36.835Z,93.50
2018-09-06T21:27:09.563Z,94.20
2018-09-06T21:29:42.149Z,94.60
2018-09-06T21:32:14.799Z,95.30
2018-09-06T21:34:47.530Z,95.30
2018-09-06T21:37:20.372Z,95.90
2018-09-06T21:39:53.149Z,96.00
2018-09-06T21:42:25.624Z,96.40
2018-09-06T21:44:58.274Z,96.70
2018-09-06T21:47:30.832Z,97.00
2018-09-06T21:50:03.403Z,97.50
2018-09-06T21:52:36.125Z,98.20
2018-09-06T21:55:08.965Z,98.10
2018-09-06T21:57:41.502Z,98.40
2018-09-06T22:00:14.344Z,98.80
2018-09-06T22:02:51.651Z,99.20
2018-09-06T22:05:29.412Z,99.20
2018-09-06T22:08:02.013Z,99.60
2018-09-06T22:10:34.660Z,99.90
2018-09-06T22:13:07.469Z,99.90
2018-09-06T22:15:40.204Z,99.90
2018-09-06T22:18:13.260Z,99.90
2018-09-06T22:20:51.737Z,99.90
2018-09-06T22:23:24.329Z,99.90
2018-09-06T22:25:57.239Z,99.90
2018-09-06T22:28:29.941Z,99.90
2018-09-06T22:31:02.592Z,99.90
2018-09-06T22:33:35.247Z,99.90
2018-09-06T22:36:08.514Z,99.90
2018-09-06T22:38:41.118Z,99.90
2018-09-06T22:41:13.985Z,99.90
2018-09-06T22:43:46.686Z,99.90
2018-09-06T22:46:19.353Z,99.90
2018-09-06T22:48:52.067Z,99.90
2018-09-06T22:51:24.710Z,99.90
2018-09-06T22:53:57.405Z,99.90
2018-09-06T22:56:30.210Z,99.90
2018-09-06T22:59:02.885Z,99.90
2018-09-06T23:01:35.662Z,99.90
2018-09-06T23:04:08.309Z,99.90
2018-09-06T23:06:40.952Z,99.90
2018-09-06T23:09:13.330Z,99.90
2018-09-06T23:11:45.951Z,99.90
2018-09-06T23:14:18.515Z,99.90
2018-09-06T23:16:51.208Z,99.90
2018-09-06T23:19:23.672Z,99.90
2018-09-06T23:21:56.186Z,99.90
2018-09-06T23:24:28.614Z,99.90
2018-09-06T23:27:01.287Z,99.90
2018-09-06T23:29:33.685Z,99.90
2018-09-06T23:32:06.399Z,99.90
2018-09-06T23:34:38.765Z,99.90
2018-09-06T23:37:11.213Z,99.90
2018-09-06T23:39:43.490Z,99.90
2018-09-06T23:42:16.090Z,99.90
2018-09-06T23:44:48.703Z,99.90
2018-09-06T23:47:21.443Z,99.90
2018-09-06T23:49:54.056Z,99.90
2018-09-06T23:52:26.692Z,99.90
2018-09-06T23:54:59.281Z,99.90
2018-09-06T23:57:31.853Z,99.90
